Time;durP1;ratioP1;P1;durP2;ratioP2;P2;SDS_P1;SDS_P2;PMS_P1;PMS_P2;Temp;Humidity;BMP_temperature;BMP_pressure;BME280_temperature;BME280_humidity;BME280_pressure;Samples;Min_cycle;Max_cycle;Signal;HPM_P1;HPM_P2
2021/07/15 00:01:56;;;;;;;6.75;1.27;;;;;;;17.55;71.04;97598.84;5034884;28;20028;-81
2021/07/15 00:04:23;;;;;;;1.08;0.98;;;;;;;17.54;70.87;97600.75;5035650;28;20079;-79
2021/07/15 00:06:48;;;;;;;1.67;0.75;;;;;;;17.53;71.06;97598.34;5034958;28;20449;-79
2021/07/15 00:09:14;;;;;;;6.55;1.92;;;;;;;17.63;71.40;97598.72;5052530;28;20025;-78
2021/07/15 00:11:44;;;;;;;3.53;1.40;;;;;;;17.53;72.06;97593.63;5052608;28;20059;-80
2021/07/15 00:14:10;;;;;;;3.00;1.27;;;;;;;17.41;73.24;97596.44;5034702;28;20056;-80
2021/07/15 00:16:36;;;;;;;6.50;2.75;;;;;;;17.46;73.46;97595.38;5030123;28;20056;-77
2021/07/15 00:19:02;;;;;;;5.45;1.67;;;;;;;17.38;74.15;97596.31;5049846;28;20049;-80
2021/07/15 00:21:27;;;;;;;4.95;1.40;;;;;;;17.29;74.72;97593.66;5047245;28;20111;-78
2021/07/15 00:23:53;;;;;;;3.97;1.52;;;;;;;17.23;75.50;97600.56;5043036;28;20025;-79
2021/07/15 00:26:22;;;;;;;3.47;1.45;;;;;;;17.28;75.79;97599.56;5030165;28;20475;-79
2021/07/15 00:28:48;;;;;;;6.88;2.30;;;;;;;17.11;76.31;97584.00;5047610;28;20103;-79
2021/07/15 00:31:14;;;;;;;2.47;1.00;;;;;;;17.20;76.12;97597.72;5033852;28;20029;-78
2021/07/15 00:33:40;;;;;;;3.88;1.73;;;;;;;17.14;76.39;97589.66;5034154;28;20029;-79
2021/07/15 00:36:05;;;;;;;4.20;1.55;;;;;;;17.39;75.27;97595.13;5033446;28;20032;-79
2021/07/15 00:38:32;;;;;;;4.32;1.85;;;;;;;17.85;73.29;97597.38;5051036;28;20428;-79
2021/07/15 00:40:58;;;;;;;4.32;1.83;;;;;;;17.45;75.11;97588.22;5033511;28;20047;-79
2021/07/15 00:43:23;;;;;;;10.48;1.63;;;;;;;17.40;76.06;97603.09;5033555;28;20041;-78
2021/07/15 00:45:50;;;;;;;5.78;1.38;;;;;;;17.36;76.10;97598.59;5033805;28;20072;-78
2021/07/15 00:48:16;;;;;;;4.97;1.40;;;;;;;17.32;76.68;97608.78;5030992;28;20021;-81
2021/07/15 00:50:42;;;;;;;2.08;1.00;;;;;;;17.44;76.16;97611.50;5013927;28;20113;-80
2021/07/15 00:53:08;;;;;;;6.40;1.70;;;;;;;17.52;75.58;97602.25;5030762;28;20124;-80
2021/07/15 00:55:40;;;;;;;4.15;1.50;;;;;;;17.67;75.79;97612.63;5031853;28;20028;-81
2021/07/15 00:58:08;;;;;;;6.57;1.83;;;;;;;17.81;75.60;97612.25;5032097;28;20026;-80
2021/07/15 01:00:36;;;;;;;6.20;3.42;;;;;;;17.62;76.57;97605.41;5013839;28;20025;-81
2021/07/15 01:03:02;;;;;;;5.38;2.08;;;;;;;17.57;77.06;97608.38;5030489;28;20060;-80
2021/07/15 01:05:34;;;;;;;7.93;1.30;;;;;;;17.75;76.15;97613.66;5030686;28;20052;-79
2021/07/15 01:08:02;;;;;;;8.00;3.45;;;;;;;17.98;75.22;97610.00;5013989;28;20036;-80
2021/07/15 01:10:33;;;;;;;8.98;4.07;;;;;;;17.67;76.03;97593.25;5014007;28;20040;-80
2021/07/15 01:13:18;;;;;;;5.57;1.95;;;;;;;17.48;77.58;97615.16;5030670;28;20382;-80
2021/07/15 01:15:58;;;;;;;5.13;2.00;;;;;;;17.38;78.37;97607.38;5032258;28;20048;-83
2021/07/15 01:18:43;;;;;;;7.72;2.60;;;;;;;17.14;79.48;97611.75;5033033;28;20485;-82
2021/07/15 01:21:27;;;;;;;14.38;4.90;;;;;;;17.19;79.84;97607.16;5023621;28;20080;-79
2021/07/15 01:24:13;;;;;;;8.15;3.67;;;;;;;17.21;80.01;97604.84;5027162;28;20029;-82
2021/07/15 01:26:58;;;;;;;10.48;3.72;;;;;;;17.39;79.28;97606.19;5037775;28;20262;-80
2021/07/15 01:29:49;;;;;;;5.85;3.15;;;;;;;17.65;77.42;97614.94;5016429;28;20107;-82
2021/07/15 01:32:18;;;;;;;9.32;3.13;;;;;;;17.73;77.40;97611.22;5034174;28;20026;-82
2021/07/15 01:34:45;;;;;;;6.28;2.80;;;;;;;17.59;77.10;97599.75;5052728;28;20041;-79
2021/07/15 01:37:12;;;;;;;8.23;2.70;;;;;;;17.47;77.63;97603.31;5048544;28;20440;-79
2021/07/15 01:39:43;;;;;;;11.68;4.03;;;;;;;17.27;78.57;97601.50;5018354;28;20414;-79
2021/07/15 01:42:12;;;;;;;12.70;2.42;;;;;;;17.38;77.95;97601.84;5017428;28;20839;-78
2021/07/15 01:44:39;;;;;;;7.78;3.63;;;;;;;17.23;78.70;97592.28;5049081;28;20064;-80
2021/07/15 01:47:05;;;;;;;11.55;3.22;;;;;;;17.15;79.34;97582.16;5032377;28;20024;-80
2021/07/15 01:49:32;;;;;;;4.78;2.42;;;;;;;17.02;78.82;97570.31;5047264;28;20060;-79
2021/07/15 01:52:00;;;;;;;3.60;2.55;;;;;;;17.13;79.12;97578.97;5029057;28;20139;-81
2021/07/15 01:54:27;;;;;;;5.32;2.05;;;;;;;17.28;78.60;97588.50;5048203;28;20040;-80
2021/07/15 01:56:54;;;;;;;2.85;1.85;;;;;;;17.04;80.00;97594.84;5029383;28;20029;-79
2021/07/15 01:59:24;;;;;;;2.03;1.65;;;;;;;16.99;80.14;97593.13;5036695;28;20056;-81
2021/07/15 02:01:51;;;;;;;7.93;1.63;;;;;;;17.12;79.56;97605.78;5041922;28;20057;-83
2021/07/15 02:04:17;;;;;;;2.85;2.28;;;;;;;17.12;79.22;97604.97;5048456;28;20075;-83
2021/07/15 02:06:45;;;;;;;2.60;1.63;;;;;;;17.11;79.28;97606.94;5039438;28;20123;-80
2021/07/15 02:09:12;;;;;;;1.88;1.67;;;;;;;16.96;79.15;97610.38;5041091;28;20021;-81
2021/07/15 02:11:42;;;;;;;8.73;2.28;;;;;;;17.00;79.25;97611.31;5029358;28;20967;-79
2021/07/15 02:14:11;;;;;;;5.85;1.88;;;;;;;16.79;79.76;97609.81;5032760;28;20025;-80
2021/07/15 02:16:41;;;;;;;4.65;1.60;;;;;;;16.53;80.53;97601.81;5050021;28;20032;-79
2021/07/15 02:19:07;;;;;;;3.00;1.90;;;;;;;16.56;81.22;97612.19;5032343;28;20025;-79
2021/07/15 02:21:35;;;;;;;2.70;1.33;;;;;;;16.95;79.27;97589.44;5050509;28;20027;-79
2021/07/15 02:24:01;;;;;;;7.47;1.75;;;;;;;17.11;78.44;97598.63;5029096;28;20021;-80
2021/07/15 02:26:28;;;;;;;6.00;2.40;;;;;;;16.88;80.90;97608.56;5046755;28;20032;-80
2021/07/15 02:28:55;;;;;;;2.97;1.42;;;;;;;16.76;82.07;97618.78;5013049;28;20041;-82
2021/07/15 02:31:38;;;;;;;4.82;2.15;;;;;;;16.74;82.48;97607.25;5017835;28;20029;-80
2021/07/15 02:34:08;;;;;;;9.60;1.35;;;;;;;16.75;82.31;97603.34;5037077;28;20036;-80
2021/07/15 02:36:36;;;;;;;3.58;2.35;;;;;;;16.65;83.30;97598.28;5030074;28;20029;-81
2021/07/15 02:39:04;;;;;;;5.18;2.00;;;;;;;16.75;83.09;97604.16;5012541;28;20079;-81
2021/07/15 02:41:30;;;;;;;6.63;2.05;;;;;;;16.74;82.28;97590.69;5032356;28;20108;-79
2021/07/15 02:43:56;;;;;;;2.85;1.55;;;;;;;16.89;81.97;97614.88;5032137;28;20120;-82
2021/07/15 02:46:21;;;;;;;4.10;1.65;;;;;;;17.02;81.30;97613.72;5033368;28;20033;-83
2021/07/15 02:48:46;;;;;;;6.30;2.15;;;;;;;17.09;80.38;97603.72;5031048;28;20028;-83
2021/07/15 02:51:12;;;;;;;5.93;1.60;;;;;;;16.99;81.50;97615.22;5034919;28;20558;-85
2021/07/15 02:53:39;;;;;;;4.30;1.67;;;;;;;17.09;81.15;97620.31;5037672;28;20021;-82
2021/07/15 02:56:26;;;;;;;3.65;1.65;;;;;;;16.87;81.85;97619.94;5036689;28;20394;-83
2021/07/15 02:59:08;;;;;;;6.18;2.80;;;;;;;16.59;83.83;97615.09;5054608;28;20032;-83
2021/07/15 03:01:42;;;;;;;5.03;1.98;;;;;;;16.71;83.35;97611.53;5053378;28;20033;-79
2021/07/15 03:04:19;;;;;;;10.80;2.67;;;;;;;16.83;82.97;97614.28;5036422;28;20083;-79
2021/07/15 03:06:45;;;;;;;4.00;1.95;;;;;;;16.97;82.45;97606.50;5054019;28;20024;-80
2021/07/15 03:09:14;;;;;;;9.63;2.47;;;;;;;16.77;83.42;97604.63;5052644;28;20389;-80
2021/07/15 03:11:49;;;;;;;5.47;1.92;;;;;;;16.94;82.71;97618.22;5052240;28;20025;-79
2021/07/15 03:14:16;;;;;;;4.10;1.87;;;;;;;16.84;82.85;97613.16;5036039;28;20060;-79
2021/07/15 03:16:44;;;;;;;5.28;1.67;;;;;;;16.70;82.88;97612.66;5053831;28;20274;-78
2021/07/15 03:19:12;;;;;;;7.63;2.03;;;;;;;16.39;84.94;97612.34;5035689;28;20473;-80
2021/07/15 03:21:42;;;;;;;4.05;1.90;;;;;;;16.07;86.20;97605.69;5052335;28;20064;-79
2021/07/15 03:24:11;;;;;;;8.75;1.55;;;;;;;16.04;86.78;97595.31;5053649;28;20025;-83
2021/07/15 03:26:38;;;;;;;6.80;1.60;;;;;;;16.33;85.60;97620.03;5054116;28;20029;-81
2021/07/15 03:29:06;;;;;;;8.63;1.65;;;;;;;16.49;84.69;97617.44;5036119;28;20049;-83
2021/07/15 03:31:33;;;;;;;5.68;2.33;;;;;;;16.38;84.78;97605.22;5053970;28;20063;-80
2021/07/15 03:33:59;;;;;;;5.32;1.90;;;;;;;16.04;87.09;97617.41;5054270;28;20035;-79
2021/07/15 03:36:26;;;;;;;5.38;1.50;;;;;;;16.03;87.54;97624.91;5035442;28;20452;-79
2021/07/15 03:38:52;;;;;;;4.35;1.73;;;;;;;15.82;88.82;97613.06;5051864;28;20440;-81
2021/07/15 03:41:18;;;;;;;8.00;2.05;;;;;;;15.95;88.56;97642.31;5035785;28;20021;-80
2021/07/15 03:43:45;;;;;;;7.03;3.83;;;;;;;16.16;87.45;97641.50;5035251;28;20528;-83
2021/07/15 03:46:12;;;;;;;5.15;1.45;;;;;;;16.63;85.00;97633.72;5035294;28;20025;-80
2021/07/15 03:48:39;;;;;;;5.82;1.80;;;;;;;16.44;84.00;97615.72;5035422;28;20025;-80
2021/07/15 03:51:06;;;;;;;7.50;2.25;;;;;;;16.41;84.94;97626.63;5035556;28;20029;-83
2021/07/15 03:53:33;;;;;;;6.38;2.85;;;;;;;16.66;83.50;97633.03;5035650;28;20363;-80
2021/07/15 03:56:01;;;;;;;5.88;2.05;;;;;;;16.99;81.01;97631.81;5035250;28;20029;-79
2021/07/15 03:58:28;;;;;;;5.72;1.65;;;;;;;17.13;80.40;97635.03;5053264;28;20099;-79
2021/07/15 04:01:02;;;;;;;3.10;1.80;;;;;;;17.40;78.21;97636.28;5052580;28;20025;-79
2021/07/15 04:03:30;;;;;;;8.20;2.28;;;;;;;17.60;77.50;97646.41;5051765;28;20032;-79
2021/07/15 04:05:56;;;;;;;5.68;1.98;;;;;;;17.84;76.79;97637.28;5053447;28;20032;-80
2021/07/15 04:08:24;;;;;;;4.72;2.65;;;;;;;18.33;74.72;97645.38;5053169;28;20033;-80
2021/07/15 04:10:51;;;;;;;5.68;2.20;;;;;;;18.07;75.14;97643.88;5051689;28;20029;-82
2021/07/15 04:13:17;;;;;;;4.38;1.88;;;;;;;17.55;77.76;97656.91;5052848;28;20021;-82
2021/07/15 04:15:55;;;;;;;5.45;2.08;;;;;;;17.07;79.72;97655.75;5034919;28;20033;-80
2021/07/15 04:18:27;;;;;;;4.00;1.73;;;;;;;17.10;79.56;97652.28;5051363;28;20021;-83
2021/07/15 04:20:53;;;;;;;9.77;2.15;;;;;;;17.05;79.44;97648.97;5035118;28;20035;-84
2021/07/15 04:23:19;;;;;;;7.88;2.10;;;;;;;16.96;80.57;97649.06;5062789;28;20028;-83
2021/07/15 04:25:52;;;;;;;4.18;1.77;;;;;;;16.99;80.24;97647.56;5053491;28;20032;-75
2021/07/15 04:28:17;;;;;;;11.27;2.92;;;;;;;17.24;79.09;97659.44;5051813;28;20512;-79
2021/07/15 04:30:46;;;;;;;5.55;1.92;;;;;;;16.95;79.84;97655.75;5051800;28;20017;-79
2021/07/15 04:33:11;;;;;;;5.35;1.90;;;;;;;16.80;80.75;97656.44;5033767;28;20047;-81
2021/07/15 04:35:42;;;;;;;8.40;2.70;;;;;;;16.83;80.70;97639.16;5051924;28;20031;-78
2021/07/15 04:38:08;;;;;;;12.30;2.95;;;;;;;16.71;81.37;97635.56;5051796;28;20100;-77
2021/07/15 04:40:35;;;;;;;7.03;2.17;;;;;;;16.89;80.01;97640.53;5055208;28;20482;-77
2021/07/15 04:43:09;;;;;;;6.25;2.35;;;;;;;17.71;76.78;97652.28;5051401;28;20021;-75
2021/07/15 04:45:38;;;;;;;6.60;2.22;;;;;;;18.39;73.01;97646.72;5051592;28;20052;-78
2021/07/15 04:48:04;;;;;;;5.25;1.88;;;;;;;18.46;72.64;97655.25;5051464;28;20111;-76
2021/07/15 04:50:35;;;;;;;2.97;1.73;;;;;;;18.01;74.11;97659.13;5045140;28;20025;-76
2021/07/15 04:53:06;;;;;;;3.42;1.92;;;;;;;18.00;74.37;97662.25;5049986;28;20090;-76
2021/07/15 04:55:32;;;;;;;8.85;1.73;;;;;;;18.49;72.77;97665.63;5033442;28;20062;-75
2021/07/15 04:58:00;;;;;;;8.95;2.03;;;;;;;18.57;71.63;97665.50;5051381;28;20082;-75
2021/07/15 05:00:27;;;;;;;4.10;2.13;;;;;;;18.49;71.92;97662.84;5051206;28;20032;-80
2021/07/15 05:03:02;;;;;;;9.55;2.42;;;;;;;18.51;72.42;97663.34;5051008;28;20070;-75
2021/07/15 05:05:27;;;;;;;6.20;2.28;;;;;;;18.74;71.46;97667.13;5051533;28;20025;-74
2021/07/15 05:07:53;;;;;;;6.28;2.72;;;;;;;18.61;72.35;97665.56;5051073;28;20021;-74
2021/07/15 05:10:18;;;;;;;5.15;1.60;;;;;;;18.60;71.73;97675.06;5051379;28;20025;-75
2021/07/15 05:12:44;;;;;;;3.38;1.60;;;;;;;18.35;72.79;97659.69;5032275;28;20036;-76
2021/07/15 05:15:11;;;;;;;3.58;1.83;;;;;;;18.73;71.88;97664.72;5050475;28;20032;-75
2021/07/15 05:17:37;;;;;;;7.93;2.33;;;;;;;19.11;70.45;97670.44;5042194;28;20474;-76
2021/07/15 05:20:06;;;;;;;5.47;2.33;;;;;;;18.97;70.48;97673.69;5040182;28;20021;-75
2021/07/15 05:22:32;;;;;;;5.35;2.17;;;;;;;19.04;70.57;97678.63;5050005;28;20029;-75
2021/07/15 05:24:57;;;;;;;9.68;2.35;;;;;;;18.87;69.55;97671.44;5044150;28;20025;-76
2021/07/15 05:27:22;;;;;;;5.68;1.60;;;;;;;18.60;70.84;97661.22;5041329;28;20068;-76
2021/07/15 05:29:48;;;;;;;4.07;1.92;;;;;;;18.94;70.13;97670.81;5031422;28;20071;-75
2021/07/15 05:32:13;;;;;;;12.25;2.30;;;;;;;18.90;69.16;97665.19;5039065;28;20108;-76
2021/07/15 05:34:39;;;;;;;7.93;2.03;;;;;;;18.86;69.35;97672.59;5046637;28;20414;-75
2021/07/15 05:37:05;;;;;;;13.70;7.85;;;;;;;18.86;69.49;97669.03;5038818;28;20028;-75
2021/07/15 05:39:31;;;;;;;9.18;5.97;;;;;;;19.07;69.15;97673.16;5047450;28;20048;-78
2021/07/15 05:41:56;;;;;;;4.22;1.63;;;;;;;19.14;68.31;97669.72;5040618;28;20033;-75
2021/07/15 05:44:21;;;;;;;4.75;1.80;;;;;;;19.07;68.80;97673.16;5030544;28;20060;-76
2021/07/15 05:46:47;;;;;;;5.97;1.60;;;;;;;19.16;67.99;97668.25;5030393;28;20064;-74
2021/07/15 05:49:12;;;;;;;5.30;4.35;;;;;;;19.53;65.95;97676.28;5029691;28;20065;-73
2021/07/15 05:51:38;;;;;;;8.45;3.97;;;;;;;19.75;65.00;97676.41;5029395;28;20052;-80
2021/07/15 05:54:03;;;;;;;12.30;5.68;;;;;;;19.58;64.70;97664.88;5030343;28;20037;-79
2021/07/15 05:56:29;;;;;;;9.13;1.98;;;;;;;19.94;64.34;97670.09;5040524;28;20013;-76
2021/07/15 05:58:55;;;;;;;12.18;2.60;;;;;;;19.72;63.31;97673.56;5038967;28;20035;-79
2021/07/15 06:01:20;;;;;;;4.78;2.25;;;;;;;20.35;63.19;97687.25;5040523;28;20029;-80
2021/07/15 06:03:47;;;;;;;4.15;1.63;;;;;;;19.78;64.11;97672.09;5035994;28;20555;-78
2021/07/15 06:06:12;;;;;;;5.10;1.60;;;;;;;19.83;64.53;97674.59;5033488;28;20073;-81
2021/07/15 06:08:37;;;;;;;3.38;1.60;;;;;;;20.04;64.19;97669.53;5034325;28;20036;-79
2021/07/15 06:11:03;;;;;;;7.45;2.33;;;;;;;20.13;64.14;97681.22;5033897;28;20037;-75
2021/07/15 06:13:29;;;;;;;5.03;1.98;;;;;;;20.11;63.80;97682.75;5030990;28;20080;-75
2021/07/15 06:15:54;;;;;;;7.28;3.17;;;;;;;20.06;63.77;97675.50;5034914;28;20508;-77
2021/07/15 06:18:20;;;;;;;6.43;2.55;;;;;;;20.69;62.76;97678.00;5033227;28;20024;-76
2021/07/15 06:20:45;;;;;;;10.68;5.00;;;;;;;20.18;64.39;97683.72;5037150;28;20036;-75
2021/07/15 06:23:11;;;;;;;12.25;3.80;;;;;;;20.73;62.50;97668.56;5045083;28;20129;-77
2021/07/15 06:25:36;;;;;;;6.55;2.72;;;;;;;20.50;62.77;97675.25;5040886;28;20033;-77
2021/07/15 06:28:02;;;;;;;5.30;2.15;;;;;;;20.87;62.12;97656.91;5042634;28;20131;-77
2021/07/15 06:30:27;;;;;;;3.55;2.28;;;;;;;20.89;62.19;97665.69;5042104;28;20073;-75
2021/07/15 06:32:54;;;;;;;5.50;1.77;;;;;;;20.60;63.26;97666.31;5044282;28;20048;-76
2021/07/15 06:35:21;;;;;;;6.72;2.25;;;;;;;20.56;63.54;97665.44;5040988;28;20085;-75
2021/07/15 06:37:51;;;;;;;3.85;1.90;;;;;;;20.91;62.10;97657.78;5044504;28;20021;-77
2021/07/15 06:40:18;;;;;;;8.93;1.83;;;;;;;21.00;61.69;97665.88;5045104;28;20005;-76
2021/07/15 06:42:43;;;;;;;7.70;2.10;;;;;;;21.68;60.59;97677.75;5041099;28;20051;-75
2021/07/15 06:45:09;;;;;;;5.20;2.05;;;;;;;21.75;59.23;97671.50;5043328;28;20024;-74
2021/07/15 06:47:36;;;;;;;3.63;1.45;;;;;;;22.00;58.15;97661.53;5048089;28;20027;-75
2021/07/15 06:50:08;;;;;;;5.53;1.75;;;;;;;21.78;58.09;97662.38;5048524;28;20021;-75
2021/07/15 06:52:35;;;;;;;3.35;1.55;;;;;;;21.36;59.01;97671.69;5021789;28;20108;-76
2021/07/15 06:55:02;;;;;;;12.18;3.92;;;;;;;21.38;60.14;97659.38;5056021;28;20445;-75
2021/07/15 06:57:28;;;;;;;6.20;1.58;;;;;;;21.67;58.82;97667.00;5039442;28;20028;-76
2021/07/15 06:59:54;;;;;;;4.88;1.63;;;;;;;21.91;57.97;97666.59;5029382;28;20038;-75
2021/07/15 07:02:19;;;;;;;6.00;1.75;;;;;;;21.42;58.49;97665.81;5042359;28;20021;-75
2021/07/15 07:04:45;;;;;;;4.38;1.13;;;;;;;21.63;57.27;97666.16;5042230;28;20051;-75
2021/07/15 07:07:10;;;;;;;4.35;1.30;;;;;;;21.71;56.86;97659.50;5033694;28;20062;-75
2021/07/15 07:09:36;;;;;;;4.20;1.50;;;;;;;21.88;55.97;97673.72;5041161;28;20104;-76
2021/07/15 07:12:02;;;;;;;4.35;2.00;;;;;;;21.74;57.33;97667.13;5032945;28;20447;-74
2021/07/15 07:14:28;;;;;;;4.18;1.70;;;;;;;21.96;54.91;97663.47;5040086;28;20038;-74
2021/07/15 07:16:53;;;;;;;4.68;1.40;;;;;;;22.28;53.93;97653.56;5043244;28;20021;-74
2021/07/15 07:19:19;;;;;;;6.13;1.75;;;;;;;22.64;53.70;97662.34;5041229;28;20043;-77
2021/07/15 07:21:44;;;;;;;5.05;1.80;;;;;;;22.84;53.35;97658.19;5042371;28;20029;-74
2021/07/15 07:24:10;;;;;;;3.28;1.50;;;;;;;22.62;53.36;97667.47;5042677;28;20044;-75
2021/07/15 07:26:36;;;;;;;8.40;1.88;;;;;;;22.16;54.86;97655.78;5041040;28;20029;-78
2021/07/15 07:29:01;;;;;;;2.60;1.45;;;;;;;22.49;53.56;97655.00;5042439;28;20037;-77
2021/07/15 07:31:27;;;;;;;5.45;1.40;;;;;;;22.25;54.37;97659.88;5032562;28;20021;-73
2021/07/15 07:33:53;;;;;;;4.68;1.58;;;;;;;22.43;54.13;97660.91;5040909;28;20029;-74
2021/07/15 07:36:19;;;;;;;5.75;1.80;;;;;;;22.69;53.54;97662.03;5041804;28;20382;-77
2021/07/15 07:38:44;;;;;;;25.77;2.63;;;;;;;22.94;53.17;97657.50;5041659;28;20029;-78
2021/07/15 07:41:10;;;;;;;6.82;1.95;;;;;;;22.74;53.36;97658.91;5040807;28;20127;-75
2021/07/15 07:43:37;;;;;;;7.15;1.80;;;;;;;22.46;54.92;97655.78;5016349;28;20105;-76
2021/07/15 07:46:03;;;;;;;4.38;2.08;;;;;;;22.76;53.73;97662.09;5041309;28;20021;-74
2021/07/15 07:48:28;;;;;;;6.60;1.88;;;;;;;22.58;54.30;97655.50;5048538;28;20025;-78
2021/07/15 07:50:57;;;;;;;10.95;1.90;;;;;;;23.04;53.02;97664.38;5040468;28;20022;-73
2021/07/15 07:53:23;;;;;;;6.90;1.90;;;;;;;22.99;53.02;97648.81;5042000;28;20170;-74
2021/07/15 07:55:48;;;;;;;2.80;1.60;;;;;;;23.38;52.33;97658.31;5041656;28;20104;-75
2021/07/15 07:58:14;;;;;;;3.28;1.60;;;;;;;23.17;53.01;97666.50;5042832;28;20033;-77
2021/07/15 08:00:39;;;;;;;6.07;1.10;;;;;;;23.69;52.01;97658.97;5038627;28;20048;-75
2021/07/15 08:03:04;;;;;;;7.90;2.45;;;;;;;24.44;50.05;97655.41;5042327;28;20040;-74
2021/07/15 08:05:31;;;;;;;3.90;1.08;;;;;;;25.21;48.23;97654.84;5041182;28;20036;-76
2021/07/15 08:07:57;;;;;;;4.43;1.63;;;;;;;25.75;46.75;97658.44;5036771;28;20017;-74
2021/07/15 08:10:22;;;;;;;4.13;1.20;;;;;;;26.17;45.54;97655.56;5039392;28;20430;-74
2021/07/15 08:12:48;;;;;;;3.85;1.25;;;;;;;24.90;48.16;97650.75;5046251;28;20355;-75
2021/07/15 08:15:14;;;;;;;4.50;1.30;;;;;;;24.55;48.98;97653.47;5045965;28;20094;-77
2021/07/15 08:17:40;;;;;;;12.27;1.70;;;;;;;24.62;49.18;97658.28;5032663;28;20028;-75
2021/07/15 08:20:08;;;;;;;8.35;1.75;;;;;;;24.85;48.69;97647.56;5032561;28;20030;-76
2021/07/15 08:22:33;;;;;;;5.32;1.45;;;;;;;25.48;47.27;97642.03;5039219;28;20561;-74
2021/07/15 08:24:59;;;;;;;3.50;2.03;;;;;;;24.71;48.87;97653.91;5046193;28;20099;-75
2021/07/15 08:27:28;;;;;;;7.88;2.13;;;;;;;25.41;47.00;97638.41;5048703;28;20589;-74
2021/07/15 08:29:54;;;;;;;3.80;1.63;;;;;;;26.00;45.75;97651.56;5037018;28;20029;-74
2021/07/15 08:32:19;;;;;;;4.15;1.67;;;;;;;26.48;44.70;97654.66;5038874;28;20114;-74
2021/07/15 08:34:45;;;;;;;8.20;1.80;;;;;;;25.63;46.38;97639.22;5040017;28;20063;-74
2021/07/15 08:37:10;;;;;;;2.80;1.20;;;;;;;25.58;46.87;97642.44;5038702;28;20121;-73
2021/07/15 08:39:35;;;;;;;1.63;1.08;;;;;;;24.37;49.48;97649.81;5037029;28;20025;-74
2021/07/15 08:42:02;;;;;;;5.65;1.40;;;;;;;24.53;49.07;97636.25;5038927;28;20056;-76
2021/07/15 08:44:29;;;;;;;5.22;2.10;;;;;;;25.28;47.29;97637.25;5035933;28;20385;-75
2021/07/15 08:46:57;;;;;;;3.58;1.40;;;;;;;26.13;44.94;97637.13;5039636;28;20017;-75
2021/07/15 08:49:23;;;;;;;6.20;1.85;;;;;;;26.11;45.18;97643.16;5044863;28;20441;-75
2021/07/15 08:51:49;;;;;;;6.57;2.13;;;;;;;26.24;44.39;97638.72;5038088;28;20021;-74
2021/07/15 08:54:16;;;;;;;2.60;1.52;;;;;;;26.00;44.86;97636.78;5045082;28;20100;-77
2021/07/15 08:56:44;;;;;;;3.30;1.58;;;;;;;25.82;45.11;97636.00;5052271;28;20105;-77
2021/07/15 08:59:16;;;;;;;3.67;1.88;;;;;;;26.23;44.36;97631.50;5042299;28;20030;-77
2021/07/15 09:01:47;;;;;;;3.97;1.65;;;;;;;26.42;44.29;97627.44;5040002;28;20033;-77
2021/07/15 09:04:13;;;;;;;4.60;1.20;;;;;;;26.49;43.97;97633.81;5039505;28;20031;-79
2021/07/15 09:06:44;;;;;;;6.40;1.80;;;;;;;26.34;43.88;97632.28;5039686;28;20025;-78
2021/07/15 09:09:10;;;;;;;5.57;2.17;;;;;;;26.77;43.95;97635.66;5037710;28;20544;-78
2021/07/15 09:11:40;;;;;;;4.13;2.17;;;;;;;26.21;44.50;97633.13;5036039;28;20044;-75
2021/07/15 09:14:17;;;;;;;7.90;1.70;;;;;;;25.92;44.93;97640.78;5028600;28;20088;-74
2021/07/15 09:16:57;;;;;;;4.63;1.30;;;;;;;25.58;46.11;97639.66;5029150;28;20728;-77
2021/07/15 09:19:25;;;;;;;3.25;1.50;;;;;;;26.02;45.65;97642.78;5029197;28;20040;-76
2021/07/15 09:21:51;;;;;;;3.65;1.55;;;;;;;27.12;43.15;97640.28;5047799;28;20013;-75
2021/07/15 09:24:39;;;;;;;5.43;1.48;;;;;;;27.36;43.07;97635.69;5047300;28;20025;-75
2021/07/15 09:27:13;;;;;;;3.58;1.00;;;;;;;26.99;43.14;97627.94;5044011;28;20100;-75
2021/07/15 09:29:39;;;;;;;3.60;1.08;;;;;;;26.96;41.86;97637.19;5046345;28;20397;-77
2021/07/15 09:32:08;;;;;;;7.20;1.33;;;;;;;26.31;43.22;97632.28;5045356;28;20033;-74
2021/07/15 09:34:36;;;;;;;3.55;1.05;;;;;;;26.43;43.44;97635.44;5029328;28;20059;-75
2021/07/15 09:37:15;;;;;;;1.67;1.05;;;;;;;26.54;42.57;97635.38;5028563;28;20018;-74
2021/07/15 09:39:46;;;;;;;2.92;0.75;;;;;;;25.98;43.70;97625.16;5028324;28;20076;-74
2021/07/15 09:42:15;;;;;;;5.15;1.23;;;;;;;26.74;43.17;97630.06;5032154;28;20029;-75
2021/07/15 09:44:46;;;;;;;5.72;1.15;;;;;;;26.88;42.50;97632.81;5015397;28;20029;-74
2021/07/15 09:47:42;;;;;;;3.30;0.98;;;;;;;25.97;43.28;97631.94;5037518;28;20031;-75
2021/07/15 09:50:26;;;;;;;1.60;1.10;;;;;;;25.60;43.95;97631.63;5042314;28;20032;-75
2021/07/15 09:52:53;;;;;;;3.00;1.00;;;;;;;25.72;43.64;97622.81;5040922;28;20051;-74
2021/07/15 09:55:23;;;;;;;4.10;1.30;;;;;;;25.91;43.33;97631.56;5038281;28;20632;-77
2021/07/15 09:58:09;;;;;;;1.55;1.20;;;;;;;26.37;43.15;97637.09;5034329;28;20098;-74
2021/07/15 10:00:36;;;;;;;;;;;;;;;26.84;41.28;97637.66;5035186;28;20474;-77
2021/07/15 10:03:04;;;;;;;3.10;1.20;;;;;;;27.01;41.59;97631.94;5038824;28;20039;-73
2021/07/15 10:05:30;;;;;;;1.95;1.25;;;;;;;27.17;41.53;97639.84;5029270;28;20076;-74
2021/07/15 10:08:10;;;;;;;2.67;1.25;;;;;;;27.16;40.83;97634.66;5041213;28;20029;-78
2021/07/15 10:10:38;;;;;;;2.88;1.20;;;;;;;27.38;40.90;97636.09;5043824;28;20539;-78
2021/07/15 10:13:14;;;;;;;4.38;0.95;;;;;;;27.25;41.34;97640.59;5048763;28;20029;-75
2021/07/15 10:15:40;;;;;;;1.17;0.68;;;;;;;27.20;41.41;97636.22;5030924;28;20535;-75
2021/07/15 10:18:06;;;;;;;2.97;1.00;;;;;;;27.39;40.99;97637.66;5037215;28;20028;-74
2021/07/15 10:20:33;;;;;;;3.92;1.00;;;;;;;27.47;41.08;97642.81;5038833;28;20024;-76
2021/07/15 10:22:58;;;;;;;2.45;0.73;;;;;;;27.43;40.48;97632.84;5045913;28;20123;-79
2021/07/15 10:25:24;;;;;;;3.97;1.20;;;;;;;26.66;41.42;97631.34;5030787;28;20118;-77
2021/07/15 10:27:49;;;;;;;2.28;1.00;;;;;;;27.00;41.58;97643.59;5048068;28;20401;-79
2021/07/15 10:30:16;;;;;;;2.53;1.08;;;;;;;27.21;41.42;97643.44;5047331;28;20037;-75
2021/07/15 10:32:42;;;;;;;3.35;1.30;;;;;;;27.00;42.88;97635.16;5034253;28;20033;-80
2021/07/15 10:35:12;;;;;;;0.90;0.60;;;;;;;26.88;40.98;97641.22;5031171;28;20032;-77
2021/07/15 10:37:39;;;;;;;2.47;0.80;;;;;;;26.77;42.67;97637.66;5035973;28;20492;-76
2021/07/15 10:40:09;;;;;;;2.72;0.93;;;;;;;26.22;43.29;97634.75;5028923;28;20020;-76
2021/07/15 10:42:37;;;;;;;2.33;1.55;;;;;;;26.28;43.05;97627.50;5037090;28;20029;-75
2021/07/15 10:45:05;;;;;;;1.95;0.90;;;;;;;26.34;44.13;97629.47;5036746;28;20029;-78
2021/07/15 10:47:30;;;;;;;1.90;0.95;;;;;;;26.33;44.34;97629.88;5036796;28;20434;-78
2021/07/15 10:49:56;;;;;;;3.05;0.82;;;;;;;26.47;44.23;97619.38;5035220;28;20055;-79
2021/07/15 10:52:24;;;;;;;2.08;1.00;;;;;;;26.79;43.17;97621.19;5024493;28;20397;-78
2021/07/15 10:54:51;;;;;;;2.05;0.85;;;;;;;26.66;43.24;97622.91;5035019;28;20025;-78
2021/07/15 10:57:24;;;;;;;3.60;0.95;;;;;;;27.00;43.01;97629.53;5027865;28;20052;-79
2021/07/15 10:59:51;;;;;;;3.92;1.10;;;;;;;27.06;42.90;97627.91;5036683;28;20496;-78
2021/07/15 11:02:24;;;;;;;2.83;1.02;;;;;;;26.98;42.92;97612.28;5038232;28;20049;-77
2021/07/15 11:04:51;;;;;;;2.40;1.05;;;;;;;27.17;42.70;97611.75;5040981;28;20041;-78
2021/07/15 11:07:30;;;;;;;1.60;0.93;;;;;;;27.64;41.05;97613.78;5032672;28;20032;-78
2021/07/15 11:10:17;;;;;;;2.15;1.05;;;;;;;27.52;41.42;97616.31;5028162;28;20032;-78
2021/07/15 11:12:58;;;;;;;1.63;0.98;;;;;;;27.42;41.12;97611.53;5057416;28;20029;-78
2021/07/15 11:15:52;;;;;;;3.78;1.17;;;;;;;26.99;41.61;97619.50;5044556;28;20552;-78
2021/07/15 11:21:30;;;;;;;3.97;0.98;;;;;;;27.49;41.12;97617.94;5041812;28;20025;-78
2021/07/15 11:24:05;;;;;;;1.98;1.05;;;;;;;28.14;39.30;97618.91;5043863;28;20025;-77
2021/07/15 11:26:37;;;;;;;0.77;0.63;;;;;;;28.06;38.61;97611.78;5039717;28;20021;-76
2021/07/15 11:29:04;;;;;;;2.38;0.73;;;;;;;28.46;38.20;97607.25;5040603;28;20098;-79
2021/07/15 11:31:47;;;;;;;0.95;0.63;;;;;;;28.67;37.73;97606.97;5039576;28;20025;-78
2021/07/15 11:34:38;;;;;;;1.55;0.90;;;;;;;28.14;37.82;97608.44;5027736;28;20363;-77
2021/07/15 11:37:25;;;;;;;1.90;0.90;;;;;;;28.09;37.93;97610.94;5041115;28;20505;-78
2021/07/15 11:39:54;;;;;;;2.42;0.90;;;;;;;28.21;37.55;97596.31;5040037;28;20141;-78
2021/07/15 11:42:22;;;;;;;1.17;0.68;;;;;;;28.57;37.60;97603.06;5046087;28;20016;-83
2021/07/15 11:45:06;;;;;;;3.85;0.95;;;;;;;28.82;37.60;97596.34;5045993;28;20044;-83